Latest Weather Observations for Hobart

IDT60901

Issued at 10:21 pm EST Thursday 2 July 2020 (issued every 10 minutes, with the page automatically refreshed every 10 minutes)

About weather observations | Map of Hobart area stations | Latest observations for Hobart area | Other Formats
Station Details ID: 094029 Name: HOBART (ELLERSLIE ROAD) Lat: -42.89 Lon: 147.33 Height: 50.5 m
Data from the previous 72 hours. | See also: Recent months at Hobart
Date/Time
EST
Temp
°C
App
Temp
°C
Dew
Point
°C
Rel
Hum
%
Delta-T
°C
Wind Press
QNH
hPa
Press
MSL
hPa
Rain since
9am
mm
Dir  Spd
km/h
Gust
km/h
Spd
kts
Gust
kts
02/10:00pm 9.1 3.0 4.7 74 2.0 NNW 26 37 14 20 1006.0 1006.1 0.0
02/09:30pm 8.9 3.1 4.5 74 1.9 NNW 24 35 13 19 1005.5 1005.6 0.0
02/09:00pm 8.9 4.1 4.5 74 2.0 NNW 19 26 10 14 1005.1 1005.2 0.0
02/08:30pm 8.7 5.8 4.5 75 1.9 NNW 9 13 5 7 1005.0 1005.1 0.0
02/08:00pm 9.3 4.9 4.7 73 2.1 NNW 17 24 9 13 1004.7 1004.8 0.0
02/07:30pm 9.6 4.3 4.8 72 2.2 NW 22 37 12 20 1004.1 1004.2 0.0
02/07:00pm 10.1 4.3 4.3 67 2.6 NW 24 39 13 21 1003.7 1003.8 0.0
02/06:30pm 10.3 4.1 4.5 67 2.6 NW 26 37 14 20 1003.3 1003.4 0.0
02/06:00pm 10.6 6.1 4.3 65 2.8 NNW 17 35 9 19 1003.0 1003.1 0.0
02/05:30pm 10.6 6.9 4.5 66 2.7 NNW 13 20 7 11 1002.9 1003.0 0.0
02/05:00pm 10.8 6.7 4.5 65 2.9 NW 15 26 8 14 1002.3 1002.4 0.0
02/04:30pm 11.2 4.9 4.0 61 3.2 NW 26 39 14 21 1002.1 1002.2 0.0
02/04:14pm 11.6 4.9 3.6 58 3.6 NNW 28 48 15 26 1001.8 1001.9 0.0
02/04:00pm 11.6 4.9 3.6 58 3.6 NW 28 43 15 23 1001.5 1001.6 0.0
02/03:34pm 12.4 4.9 3.6 55 3.9 NNW 32 50 17 27 1001.2 1001.3 0.0
02/03:30pm 12.3 4.8 3.3 54 4.0 NNW 32 46 17 25 1001.1 1001.2 0.0
02/03:00pm 12.6 5.8 3.3 53 4.2 NNW 28 48 15 26 1000.8 1000.9 0.0
02/02:57pm 12.8 6.0 3.2 52 4.3 NNW 28 48 15 26 1000.8 1000.9 0.0
02/02:30pm 12.5 6.2 4.0 56 3.8 NNW 26 39 14 21 1000.5 1000.6 0.0
02/02:00pm 12.6 6.8 4.6 58 3.7 N 24 39 13 21 1000.2 1000.3 0.0
02/01:30pm 12.1 6.1 3.6 56 3.8 NW 24 44 13 24 1000.2 1000.3 0.0
02/01:02pm 11.8 5.1 3.6 57 3.6 NNW 28 52 15 28 999.9 1000.0 0.0
02/01:00pm 11.7 5.7 3.5 57 3.7 NNW 24 43 13 23 1000.0 1000.1 0.0
02/12:46pm 12.2 5.6 4.4 59 3.5 NNW 28 46 15 25 999.8 999.9 0.0
02/12:30pm 12.3 6.7 5.2 62 3.3 N 24 35 13 19 999.9 1000.0 0.0
02/12:00pm 11.8 6.3 5.9 67 2.8 N 24 33 13 18 999.5 999.6 0.0
02/11:43am 11.7 5.5 6.0 68 2.7 N 28 50 15 27 999.1 999.2 0.0
02/11:30am 11.2 5.4 6.3 72 2.3 NNE 26 41 14 22 999.2 999.3 0.0
02/11:00am 9.9 4.4 5.9 76 1.9 N 24 33 13 18 999.5 999.6 0.0
02/10:30am 9.5 4.4 5.9 78 1.7 N 22 33 12 18 999.6 999.7 0.0
02/10:00am 9.3 4.2 6.2 81 1.4 N 22 30 12 16 999.1 999.2 0.0
02/09:30am 9.5 4.4 6.2 80 1.5 NNW 22 35 12 19 998.6 998.7 0.0
02/09:00am 9.7 4.7 6.6 81 1.5 N 22 32 12 17 998.5 998.6 5.0
02/08:30am 9.4 5.1 7.0 85 1.1 NNW 19 24 10 13 998.7 998.8 5.0
02/08:00am 9.4 5.2 7.3 87 1.0 NNW 19 26 10 14 998.7 998.8 5.0
02/07:30am 9.5 5.3 7.3 86 1.0 NW 19 22 10 12 998.6 998.7 4.6
02/07:00am 10.0 7.1 8.3 89 0.8 NNW 13 20 7 11 998.6 998.7 2.6
02/06:30am 10.1 7.5 7.9 86 1.1 NNW 11 17 6 9 998.3 998.4 1.4
02/06:00am 11.0 8.0 7.5 79 1.7 NNW 13 20 7 11 998.2 998.3 0.6
02/05:30am 11.3 7.4 7.2 76 2.0 NNW 17 22 9 12 998.1 998.2 0.6
02/05:00am 11.6 7.1 7.1 74 2.2 N 20 32 11 17 998.0 998.1 0.6
02/04:30am 11.8 6.5 6.7 71 2.4 N 24 35 13 19 998.6 998.7 0.6
02/04:00am 11.9 5.8 6.8 71 2.5 N 28 41 15 22 998.9 999.0 0.6
02/03:30am 11.1 6.7 7.2 77 1.9 N 20 35 11 19 999.6 999.7 0.6
02/03:00am 10.2 5.8 6.5 78 1.7 N 19 26 10 14 1000.5 1000.6 0.4
02/02:30am 9.6 5.5 6.3 80 1.5 NNW 17 26 9 14 1001.5 1001.6 0.2
02/02:00am 8.9 4.3 5.5 79 1.5 N 19 30 10 16 1001.7 1001.8 0.0
02/01:30am 7.4 4.5 4.9 84 1.1 N 9 15 5 8 1002.0 1002.1 0.0
02/01:00am 8.0 4.4 4.9 81 1.4 N 13 17 7 9 1002.4 1002.5 0.0
02/12:30am 7.9 3.9 5.0 82 1.3 NNW 15 19 8 10 1002.5 1002.6 0.0
02/12:00am 8.1 4.9 5.0 81 1.4 N 11 15 6 8 1003.4 1003.5 0.0
 
Date/Time
EST
Temp
°C
App
Temp
°C
Dew
Point
°C
Rel
Hum
%
Delta-T
°C
Wind Press
QNH
hPa
Press
MSL
hPa
Rain since
9am
mm
Dir  Spd
km/h
Gust
km/h
Spd
kts
Gust
kts
01/11:30pm 8.8 4.9 5.2 78 1.6 N 15 19 8 10 1004.1 1004.2 0.0
01/11:00pm 8.7 4.4 5.1 78 1.6 N 17 20 9 11 1004.5 1004.6 0.0
01/10:30pm 9.1 4.4 5.1 76 1.8 NNW 19 24 10 13 1004.9 1005.0 0.0
01/10:00pm 9.3 5.0 5.1 75 1.9 NNW 17 22 9 12 1005.1 1005.2 0.0
01/09:30pm 9.6 5.3 5.2 74 2.0 NNW 17 20 9 11 1005.5 1005.6 0.0
01/09:00pm 10.1 5.5 5.7 74 2.0 NNW 19 22 10 12 1005.9 1006.0 0.0
01/08:30pm 10.6 6.1 6.0 73 2.1 N 19 24 10 13 1006.3 1006.4 0.0
01/08:00pm 11.6 6.9 5.9 68 2.7 N 20 30 11 16 1006.6 1006.7 0.0
01/07:30pm 11.1 6.5 5.8 70 2.5 N 19 28 10 15 1007.0 1007.1 0.0
01/07:00pm 11.1 6.6 6.0 71 2.4 NNW 19 28 10 15 1007.1 1007.2 0.0
01/06:30pm 11.2 7.0 5.9 70 2.5 NNW 17 26 9 14 1007.1 1007.2 0.0
01/06:00pm 12.1 7.9 5.9 66 2.9 N 17 24 9 13 1007.3 1007.4 0.0
01/05:30pm 11.7 7.6 6.0 68 2.7 N 17 24 9 13 1007.8 1007.9 0.0
01/05:00pm 11.2 6.7 6.1 71 2.4 N 19 28 10 15 1007.8 1007.9 0.0
01/04:30pm 11.9 7.2 6.2 68 2.7 N 20 28 11 15 1008.1 1008.2 0.0
01/04:00pm 12.6 7.5 6.0 64 3.1 NNW 22 33 12 18 1008.3 1008.4 0.0
01/03:30pm 12.3 7.6 6.1 66 2.9 N 20 30 11 16 1008.5 1008.6 0.0
01/03:00pm 13.8 10.6 6.7 62 3.4 N 13 19 7 10 1008.8 1008.9 0.0
01/02:30pm 12.7 9.4 6.3 65 3.0 NNW 13 22 7 12 1009.1 1009.3 0.0
01/02:00pm 11.1 8.8 5.6 69 2.5 ENE 7 11 4 6 1009.7 1009.9 0.0
01/01:30pm 12.0 9.7 5.6 65 3.0 NE 7 11 4 6 1010.1 1010.3 0.0
01/01:00pm 12.2 9.3 4.9 61 3.4 NNW 9 13 5 7 1011.0 1011.1 0.0
01/12:30pm 11.9 9.1 5.1 63 3.1 NW 9 13 5 7 1011.6 1011.7 0.0
01/12:00pm 10.8 7.5 4.5 65 2.8 NNW 11 15 6 8 1012.2 1012.3 0.0
01/11:30am 9.8 5.7 4.4 69 2.4 NNW 15 20 8 11 1012.4 1012.5 0.0
01/11:00am 8.6 4.8 4.0 73 2.0 NNW 13 19 7 10 1013.0 1013.1 0.0
01/10:30am 7.1 2.0 3.0 75 1.7 NNW 19 24 10 13 1013.3 1013.4 0.0
01/10:00am 7.4 2.8 3.8 78 1.5 NNW 17 22 9 12 1013.6 1013.7 0.0
01/09:30am 5.3 -0.8 2.5 82 1.1 NNW 24 32 13 17 1013.9 1014.0 0.0
01/09:00am 5.5 0.4 2.8 83 1.1 NNW 19 26 10 14 1013.9 1014.0 0.0
01/08:30am 5.5 0.3 3.5 87 0.8 NW 20 28 11 15 1013.8 1013.9 0.0
01/08:00am 4.1 -0.3 2.5 89 0.6 NW 15 24 8 13 1014.0 1014.1 0.0
01/07:30am 4.1 0.1 2.6 90 0.6 NW 13 20 7 11 1014.1 1014.2 0.0
01/07:00am 3.4 0.4 1.9 90 0.6 N 7 11 4 6 1014.0 1014.1 0.0
01/06:30am 3.5 0.5 2.0 90 0.6 NNE 7 15 4 8 1014.0 1014.1 0.0
01/06:00am 4.2 0.5 2.4 88 0.7 NNW 11 15 6 8 1013.9 1014.0 0.0
01/05:30am 4.2 0.2 2.9 91 0.5 NNW 13 17 7 9 1013.9 1014.0 0.0
01/05:00am 4.1 0.0 2.5 89 0.6 NNW 13 17 7 9 1014.1 1014.2 0.0
01/04:30am 3.9 1.0 2.4 90 0.6 NNW 7 11 4 6 1014.0 1014.1 0.0
01/04:00am 4.6 1.0 2.8 88 0.7 NNW 11 15 6 8 1014.1 1014.2 0.0
01/03:30am 5.4 1.4 3.1 85 1.0 NNW 13 20 7 11 1014.2 1014.3 0.0
01/03:00am 4.8 0.8 3.1 89 0.7 NW 13 20 7 11 1014.4 1014.5 0.0
01/02:30am 5.3 2.7 3.2 86 0.9 WNW 6 13 3 7 1014.6 1014.7 0.0
01/02:00am 5.9 0.3 3.4 84 1.0 NNW 22 32 12 17 1014.4 1014.5 0.0
01/01:30am 5.5 0.9 3.8 89 0.7 NNW 17 24 9 13 1014.4 1014.5 0.0
01/01:00am 4.9 1.1 3.7 92 0.5 NNW 13 24 7 13 1014.7 1014.8 0.0
01/12:30am 5.4 2.9 3.6 88 0.8 NNW 6 11 3 6 1015.0 1015.1 0.0
01/12:00am 5.9 2.2 4.5 91 0.6 NW 13 22 7 12 1015.1 1015.2 0.0
 
Date/Time
EST
Temp
°C
App
Temp
°C
Dew
Point
°C
Rel
Hum
%
Delta-T
°C
Wind Press
QNH
hPa
Press
MSL
hPa
Rain since
9am
mm
Dir  Spd
km/h
Gust
km/h
Spd
kts
Gust
kts
30/11:30pm 5.3 2.8 3.8 90 0.6 NE 6 7 3 4 1015.3 1015.4 0.0
30/11:00pm 6.0 2.6 4.2 88 0.8 N 11 15 6 8 1015.5 1015.6 0.0
30/10:30pm 6.4 4.0 4.4 87 0.9 WSW 6 11 3 6 1015.5 1015.6 0.0
30/10:00pm 7.0 4.5 4.5 84 1.1 N 7 9 4 5 1015.4 1015.5 0.0
30/09:30pm 7.3 4.9 4.4 82 1.3 NNE 6 9 3 5 1015.4 1015.5 0.0
30/09:00pm 7.6 5.1 4.6 81 1.3 NW 7 11 4 6 1015.2 1015.3 0.0
30/08:30pm 8.2 4.6 5.0 80 1.4 NNW 13 15 7 8 1015.1 1015.2 0.0
30/08:00pm 8.3 5.1 4.9 79 1.5 NNW 11 13 6 7 1015.2 1015.3 0.0
30/07:30pm 8.5 5.3 4.9 78 1.6 NNW 11 13 6 7 1015.4 1015.5 0.0
30/07:00pm 8.3 3.6 5.1 80 1.4 NNW 19 24 10 13 1015.4 1015.5 0.0
30/06:30pm 8.6 3.7 5.0 78 1.6 NNW 20 28 11 15 1015.3 1015.4 0.0
30/06:00pm 10.0 4.3 4.8 70 2.3 NNW 24 33 13 18 1015.2 1015.3 0.0
30/05:30pm 10.0 5.0 4.6 69 2.4 NNW 20 28 11 15 1014.9 1015.0 0.0
30/05:00pm 9.1 3.8 5.1 76 1.8 NNW 22 28 12 15 1015.0 1015.1 0.0
30/04:30pm 10.0 5.6 4.6 69 2.4 NNW 17 22 9 12 1015.4 1015.5 0.0
30/04:00pm 10.5 6.0 4.0 64 2.9 NNW 17 24 9 13 1015.6 1015.7 0.0
30/03:30pm 10.7 7.4 4.4 65 2.8 NNW 11 15 6 8 1015.8 1015.9 0.0
30/03:00pm 11.6 8.4 5.0 64 3.0 NNW 11 15 6 8 1015.8 1015.9 0.0
30/02:30pm 10.1 6.4 4.5 68 2.5 NNW 13 19 7 10 1016.2 1016.3 0.0
30/02:00pm 10.0 5.6 4.6 69 2.4 NNW 17 24 9 13 1016.5 1016.6 0.0
30/01:30pm 10.1 6.4 4.5 68 2.5 N 13 20 7 11 1016.9 1017.0 0.0
30/01:00pm 10.4 5.5 4.3 66 2.7 NNW 19 28 10 15 1017.4 1017.5 0.0
30/12:30pm 10.2 4.8 4.6 68 2.5 NNW 22 30 12 16 1017.8 1017.9 0.0
30/12:00pm 8.8 3.8 4.6 75 1.9 NNW 20 30 11 16 1018.3 1018.4 0.0
30/11:30am 8.7 3.3 4.5 75 1.9 NNW 22 33 12 18 1018.9 1019.0 0.0
30/11:00am 8.3 2.6 4.7 78 1.6 NNW 24 33 13 18 1019.4 1019.5 0.0
30/10:30am 8.2 2.4 4.6 78 1.6 NNW 24 37 13 20 1019.9 1020.0 0.0
30/10:00am 7.1 2.3 4.8 85 1.0 NNW 19 30 10 16 1020.0 1020.1 0.0
30/09:30am 6.9 1.5 4.7 86 1.0 NNW 22 35 12 19 1020.1 1020.2 0.0
30/09:00am 6.6 1.8 4.9 89 0.7 NNW 19 28 10 15 1020.3 1020.4 0.0
30/08:30am 6.1 1.2 5.1 93 0.4 NNW 20 32 11 17 1020.8 1020.9 0.0
30/08:00am 5.6 1.6 4.9 95 0.3 N 15 20 8 11 1021.2 1021.3 0.0
30/07:30am 5.5 0.6 5.1 97 0.2 NNW 20 32 11 17 1021.3 1021.4 0.0
30/07:00am 5.6 0.7 5.2 97 0.2 NNW 20 28 11 15 1021.4 1021.5 0.0
30/06:30am 5.8 1.5 5.4 97 0.2 NNW 17 24 9 13 1021.5 1021.6 0.0
30/06:00am 5.7 1.0 5.3 97 0.2 NNW 19 30 10 16 1021.6 1021.7 0.0
30/05:30am 5.7 0.5 5.3 97 0.2 NNW 22 33 12 18 1021.6 1021.7 0.0
30/05:00am 5.7 -0.3 5.4 98 0.1 NNW 26 37 14 20 1021.8 1021.9 0.0
30/04:30am 5.5 0.8 5.1 97 0.2 NW 19 28 10 15 1022.0 1022.1 0.0
30/04:00am 5.6 0.9 5.0 96 0.3 NW 19 32 10 17 1022.4 1022.5 0.0
30/03:30am 5.9 1.0 5.2 95 0.3 NNW 20 30 11 16 1022.6 1022.7 0.0
30/03:00am 6.2 1.9 5.2 93 0.4 NW 17 24 9 13 1022.8 1022.9 0.0
30/02:30am 6.6 2.4 5.6 93 0.4 NW 17 24 9 13 1023.0 1023.1 0.0
30/02:00am 6.6 3.5 5.6 93 0.4 WNW 11 24 6 13 1023.4 1023.5 0.0
30/01:30am 6.6 3.1 5.4 92 0.5 NW 13 19 7 10 1023.7 1023.8 0.0
30/01:00am 6.8 3.3 5.4 91 0.6 NW 13 20 7 11 1023.8 1023.9 0.0
30/12:30am 7.0 3.9 5.6 91 0.6 NNW 11 17 6 9 1023.8 1023.9 0.0
30/12:00am 6.9 3.8 5.4 90 0.7 NW 11 15 6 8 1024.2 1024.3 0.0
 
Date/Time
EST
Temp
°C
App
Temp
°C
Dew
Point
°C
Rel
Hum
%
Delta-T
°C
Wind Press
QNH
hPa
Press
MSL
hPa
Rain since
9am
mm
Dir  Spd
km/h
Gust
km/h
Spd
kts
Gust
kts
29/11:30pm 7.4 4.4 5.9 90 0.7 NW 11 17 6 9 1024.5 1024.6 0.0
29/11:00pm 7.1 4.4 5.6 90 0.7 NW 9 19 5 10 1024.7 1024.8 0.0
29/10:30pm 7.3 6.0 5.8 90 0.7 NW 2 9 1 5 1024.9 1025.0 0.0

Latest Capital City Observations: Canberra | Sydney | Melbourne | Brisbane | Adelaide | Perth | Hobart | Darwin

Other formats

Comma delimited format used in spreadsheet applications
http://www.bom.gov.au/fwo/IDT60901/IDT60901.94970.axf

JavaScript Object Notation format (JSON) in row-major order
http://www.bom.gov.au/fwo/IDT60901/IDT60901.94970.json

Data quality

Most of these data are generated automatically and are frequently updated. Quality checks on data are not normally performed. It is possible for incorrect values to appear. Refer to information at About Latest Weather Observations and please check the disclaimer before using these data.